sensor_id;sensor_type;location;lat;lon;timestamp;pressure;altitude;pressure_sealevel;temperature;humidity
22572;BME280;11452;53.368;14.658;2022-08-01T00:01:23;100661.02;;;22.74;46.62
22572;BME280;11452;53.368;14.658;2022-08-01T00:06:30;100670.39;;;22.75;47.02
22572;BME280;11452;53.368;14.658;2022-08-01T00:11:36;100678.00;;;22.64;46.77
22572;BME280;11452;53.368;14.658;2022-08-01T00:16:41;100673.73;;;22.53;47.46
22572;BME280;11452;53.368;14.658;2022-08-01T00:21:47;100664.17;;;22.49;47.61
22572;BME280;11452;53.368;14.658;2022-08-01T00:26:55;100668.41;;;22.39;48.11
22572;BME280;11452;53.368;14.658;2022-08-01T00:32:00;100670.44;;;22.37;48.14
22572;BME280;11452;53.368;14.658;2022-08-01T00:37:07;100671.16;;;22.43;48.57
22572;BME280;11452;53.368;14.658;2022-08-01T00:42:14;100676.77;;;22.42;48.38
22572;BME280;11452;53.368;14.658;2022-08-01T00:47:20;100677.58;;;22.34;48.66
22572;BME280;11452;53.368;14.658;2022-08-01T00:52:25;100669.17;;;22.20;49.12
22572;BME280;11452;53.368;14.658;2022-08-01T00:57:31;100673.12;;;22.25;49.40
22572;BME280;11452;53.368;14.658;2022-08-01T01:02:39;100671.77;;;22.25;49.44
22572;BME280;11452;53.368;14.658;2022-08-01T01:07:56;100678.36;;;22.19;49.79
22572;BME280;11452;53.368;14.658;2022-08-01T01:18:34;100650.30;;;22.22;50.02
22572;BME280;11452;53.368;14.658;2022-08-01T01:29:15;100624.41;;;22.18;50.22
22572;BME280;11452;53.368;14.658;2022-08-01T01:34:21;100621.98;;;22.11;50.26
22572;BME280;11452;53.368;14.658;2022-08-01T01:39:30;100608.53;;;22.05;50.45
22572;BME280;11452;53.368;14.658;2022-08-01T01:44:38;100598.65;;;22.08;50.63
22572;BME280;11452;53.368;14.658;2022-08-01T01:49:46;100595.77;;;22.10;50.66
22572;BME280;11452;53.368;14.658;2022-08-01T01:54:54;100592.88;;;22.11;50.74
22572;BME280;11452;53.368;14.658;2022-08-01T02:00:02;100589.66;;;22.08;50.67
22572;BME280;11452;53.368;14.658;2022-08-01T02:05:11;100593.03;;;22.02;51.18
22572;BME280;11452;53.368;14.658;2022-08-01T02:10:18;100585.31;;;21.97;51.12
22572;BME280;11452;53.368;14.658;2022-08-01T02:15:27;100586.33;;;21.96;51.31
22572;BME280;11452;53.368;14.658;2022-08-01T02:20:34;100572.39;;;21.99;51.43
22572;BME280;11452;53.368;14.658;2022-08-01T02:25:46;100575.11;;;21.99;51.49
22572;BME280;11452;53.368;14.658;2022-08-01T02:31:06;100576.11;;;21.94;51.42
22572;BME280;11452;53.368;14.658;2022-08-01T02:36:07;100561.46;;;21.91;51.37
22572;BME280;11452;53.368;14.658;2022-08-01T02:41:19;100571.66;;;21.85;51.59
22572;BME280;11452;53.368;14.658;2022-08-01T02:46:37;100565.16;;;21.78;51.67
22572;BME280;11452;53.368;14.658;2022-08-01T02:51:40;100565.17;;;21.82;51.90
22572;BME280;11452;53.368;14.658;2022-08-01T02:56:47;100558.87;;;21.82;52.18
22572;BME280;11452;53.368;14.658;2022-08-01T03:01:55;100560.59;;;21.83;52.17
22572;BME280;11452;53.368;14.658;2022-08-01T03:07:04;100559.20;;;21.78;52.24
22572;BME280;11452;53.368;14.658;2022-08-01T03:12:14;100554.45;;;21.81;52.43
22572;BME280;11452;53.368;14.658;2022-08-01T03:17:22;100561.07;;;21.78;52.51
22572;BME280;11452;53.368;14.658;2022-08-01T03:22:29;100571.80;;;21.80;52.58
22572;BME280;11452;53.368;14.658;2022-08-01T03:27:36;100577.59;;;21.81;52.57
22572;BME280;11452;53.368;14.658;2022-08-01T03:32:42;100578.76;;;21.78;52.59
22572;BME280;11452;53.368;14.658;2022-08-01T03:37:55;100575.87;;;21.80;52.65
22572;BME280;11452;53.368;14.658;2022-08-01T03:48:31;100581.50;;;21.82;52.87
22572;BME280;11452;53.368;14.658;2022-08-01T03:53:39;100578.78;;;21.82;53.11
22572;BME280;11452;53.368;14.658;2022-08-01T03:58:46;100580.68;;;21.86;53.32
22572;BME280;11452;53.368;14.658;2022-08-01T04:03:54;100572.34;;;21.91;53.62
22572;BME280;11452;53.368;14.658;2022-08-01T04:08:59;100583.61;;;21.96;53.67
22572;BME280;11452;53.368;14.658;2022-08-01T04:14:05;100583.72;;;21.83;53.17
22572;BME280;11452;53.368;14.658;2022-08-01T04:19:12;100584.27;;;21.60;53.91
22572;BME280;11452;53.368;14.658;2022-08-01T04:24:18;100591.30;;;21.67;53.90
22572;BME280;11452;53.368;14.658;2022-08-01T04:29:25;100596.14;;;21.55;54.38
22572;BME280;11452;53.368;14.658;2022-08-01T04:34:33;100587.69;;;21.62;54.78
22572;BME280;11452;53.368;14.658;2022-08-01T04:39:41;100587.03;;;21.64;55.00
22572;BME280;11452;53.368;14.658;2022-08-01T04:44:50;100598.80;;;21.69;55.12
22572;BME280;11452;53.368;14.658;2022-08-01T04:49:56;100599.45;;;21.67;55.34
22572;BME280;11452;53.368;14.658;2022-08-01T04:55:03;100605.05;;;21.65;55.64
22572;BME280;11452;53.368;14.658;2022-08-01T05:00:11;100604.39;;;21.71;56.29
22572;BME280;11452;53.368;14.658;2022-08-01T05:05:17;100606.53;;;21.86;56.20
22572;BME280;11452;53.368;14.658;2022-08-01T05:10:23;100593.98;;;21.97;56.51
22572;BME280;11452;53.368;14.658;2022-08-01T05:15:30;100588.80;;;22.11;56.26
22572;BME280;11452;53.368;14.658;2022-08-01T05:20:36;100589.30;;;22.11;56.22
22572;BME280;11452;53.368;14.658;2022-08-01T05:25:42;100591.57;;;22.28;56.67
22572;BME280;11452;53.368;14.658;2022-08-01T05:30:49;100595.55;;;22.41;56.22
22572;BME280;11452;53.368;14.658;2022-08-01T05:35:55;100609.98;;;22.34;56.11
22572;BME280;11452;53.368;14.658;2022-08-01T05:41:00;100612.77;;;22.54;56.49
22572;BME280;11452;53.368;14.658;2022-08-01T05:46:06;100612.42;;;22.53;56.43
22572;BME280;11452;53.368;14.658;2022-08-01T05:51:12;100605.80;;;22.56;56.63
22572;BME280;11452;53.368;14.658;2022-08-01T05:56:18;100606.55;;;22.86;56.42
22572;BME280;11452;53.368;14.658;2022-08-01T06:01:24;100605.20;;;22.94;55.84
22572;BME280;11452;53.368;14.658;2022-08-01T06:06:30;100611.84;;;23.04;55.75
22572;BME280;11452;53.368;14.658;2022-08-01T06:11:35;100611.67;;;23.26;55.79
22572;BME280;11452;53.368;14.658;2022-08-01T06:16:41;100620.17;;;23.39;55.17
22572;BME280;11452;53.368;14.658;2022-08-01T06:21:47;100622.23;;;23.49;55.01
22572;BME280;11452;53.368;14.658;2022-08-01T06:26:52;100627.69;;;23.61;54.86
22572;BME280;11452;53.368;14.658;2022-08-01T06:31:59;100631.91;;;23.76;54.41
22572;BME280;11452;53.368;14.658;2022-08-01T06:37:05;100646.08;;;23.75;53.95
22572;BME280;11452;53.368;14.658;2022-08-01T06:42:11;100637.75;;;23.61;53.61
22572;BME280;11452;53.368;14.658;2022-08-01T06:47:18;100636.34;;;23.81;53.42
22572;BME280;11452;53.368;14.658;2022-08-01T06:52:24;100635.10;;;23.96;52.90
22572;BME280;11452;53.368;14.658;2022-08-01T06:57:30;100650.92;;;24.12;53.21
22572;BME280;11452;53.368;14.658;2022-08-01T07:02:36;100639.98;;;24.21;52.42
22572;BME280;11452;53.368;14.658;2022-08-01T07:07:41;100652.62;;;24.13;52.25
22572;BME280;11452;53.368;14.658;2022-08-01T07:12:47;100648.36;;;24.15;52.18
22572;BME280;11452;53.368;14.658;2022-08-01T07:17:53;100649.22;;;24.24;52.42
22572;BME280;11452;53.368;14.658;2022-08-01T07:22:59;100639.65;;;24.28;52.37
22572;BME280;11452;53.368;14.658;2022-08-01T07:28:05;100655.53;;;24.28;52.20
22572;BME280;11452;53.368;14.658;2022-08-01T07:33:11;100660.15;;;24.24;51.82
22572;BME280;11452;53.368;14.658;2022-08-01T07:38:16;100659.66;;;24.12;51.99
22572;BME280;11452;53.368;14.658;2022-08-01T07:43:22;100658.09;;;24.30;52.17
22572;BME280;11452;53.368;14.658;2022-08-01T07:48:27;100659.22;;;24.39;51.69
22572;BME280;11452;53.368;14.658;2022-08-01T07:53:33;100663.98;;;24.45;51.23
22572;BME280;11452;53.368;14.658;2022-08-01T07:58:39;100667.36;;;24.51;51.21
22572;BME280;11452;53.368;14.658;2022-08-01T08:03:45;100654.49;;;24.64;51.07
22572;BME280;11452;53.368;14.658;2022-08-01T08:08:50;100660.04;;;24.79;51.09
22572;BME280;11452;53.368;14.658;2022-08-01T08:13:57;100661.80;;;25.03;51.08
22572;BME280;11452;53.368;14.658;2022-08-01T08:19:03;100667.02;;;25.12;50.93
22572;BME280;11452;53.368;14.658;2022-08-01T08:24:09;100667.37;;;25.09;50.41
22572;BME280;11452;53.368;14.658;2022-08-01T08:29:18;100664.36;;;25.04;50.57
22572;BME280;11452;53.368;14.658;2022-08-01T08:34:27;100675.88;;;25.18;50.52
22572;BME280;11452;53.368;14.658;2022-08-01T08:39:33;100676.41;;;25.37;50.75
22572;BME280;11452;53.368;14.658;2022-08-01T08:44:50;100681.59;;;25.50;49.95
22572;BME280;11452;53.368;14.658;2022-08-01T08:49:55;100696.78;;;25.34;49.40
22572;BME280;11452;53.368;14.658;2022-08-01T08:55:00;100695.39;;;25.38;51.42
22572;BME280;11452;53.368;14.658;2022-08-01T09:00:07;100694.58;;;25.75;50.35
22572;BME280;11452;53.368;14.658;2022-08-01T09:05:15;100702.28;;;25.76;51.17
22572;BME280;11452;53.368;14.658;2022-08-01T09:10:23;100703.55;;;25.84;50.73
22572;BME280;11452;53.368;14.658;2022-08-01T09:15:40;100710.21;;;25.85;50.12
22572;BME280;11452;53.368;14.658;2022-08-01T09:20:47;100708.82;;;25.71;49.61
22572;BME280;11452;53.368;14.658;2022-08-01T09:25:52;100712.92;;;25.90;49.75
22572;BME280;11452;53.368;14.658;2022-08-01T09:31:12;100722.00;;;26.05;49.02
22572;BME280;11452;53.368;14.658;2022-08-01T09:36:22;100725.93;;;26.06;49.17
22572;BME280;11452;53.368;14.658;2022-08-01T09:41:31;100729.16;;;26.10;48.39
22572;BME280;11452;53.368;14.658;2022-08-01T09:46:51;100730.30;;;26.15;47.91
22572;BME280;11452;53.368;14.658;2022-08-01T09:51:59;100729.92;;;26.00;47.22
22572;BME280;11452;53.368;14.658;2022-08-01T09:57:10;100735.30;;;25.78;47.61
22572;BME280;11452;53.368;14.658;2022-08-01T10:02:33;100741.52;;;26.06;47.77
22572;BME280;11452;53.368;14.658;2022-08-01T10:07:57;100736.08;;;26.35;47.47
22572;BME280;11452;53.368;14.658;2022-08-01T10:13:04;100744.45;;;26.38;47.84
22572;BME280;11452;53.368;14.658;2022-08-01T10:18:12;100745.97;;;26.40;46.87
22572;BME280;11452;53.368;14.658;2022-08-01T10:23:20;100751.77;;;26.56;47.04
22572;BME280;11452;53.368;14.658;2022-08-01T10:28:30;100748.18;;;26.55;46.78
22572;BME280;11452;53.368;14.658;2022-08-01T10:33:40;100751.82;;;26.92;47.01
22572;BME280;11452;53.368;14.658;2022-08-01T10:38:49;100761.27;;;26.79;45.69
22572;BME280;11452;53.368;14.658;2022-08-01T10:43:56;100756.63;;;26.79;45.28
22572;BME280;11452;53.368;14.658;2022-08-01T10:49:26;100752.48;;;26.54;46.12
22572;BME280;11452;53.368;14.658;2022-08-01T10:54:38;100764.67;;;26.37;46.09
22572;BME280;11452;53.368;14.658;2022-08-01T10:59:49;100755.48;;;26.48;46.58
22572;BME280;11452;53.368;14.658;2022-08-01T11:05:20;100760.77;;;26.65;45.79
22572;BME280;11452;53.368;14.658;2022-08-01T11:10:39;100764.30;;;26.40;46.89
22572;BME280;11452;53.368;14.658;2022-08-01T11:15:47;100765.79;;;26.28;46.56
22572;BME280;11452;53.368;14.658;2022-08-01T11:21:02;100768.04;;;26.58;47.75
22572;BME280;11452;53.368;14.658;2022-08-01T11:26:11;100776.59;;;26.73;46.55
22572;BME280;11452;53.368;14.658;2022-08-01T11:36:26;100787.14;;;26.80;47.44
22572;BME280;11452;53.368;14.658;2022-08-01T11:41:35;100788.80;;;26.85;46.72
22572;BME280;11452;53.368;14.658;2022-08-01T11:52:06;100785.44;;;26.94;45.88
22572;BME280;11452;53.368;14.658;2022-08-01T11:57:14;100782.23;;;27.16;46.75
22572;BME280;11452;53.368;14.658;2022-08-01T12:02:33;100789.66;;;27.37;45.33
22572;BME280;11452;53.368;14.658;2022-08-01T12:07:33;100782.35;;;27.44;45.36
22572;BME280;11452;53.368;14.658;2022-08-01T12:12:46;100792.53;;;27.65;45.15
22572;BME280;11452;53.368;14.658;2022-08-01T12:17:57;100787.86;;;27.65;45.63
22572;BME280;11452;53.368;14.658;2022-08-01T12:23:13;100795.47;;;27.48;45.42
22572;BME280;11452;53.368;14.658;2022-08-01T12:28:12;100799.92;;;27.64;45.04
22572;BME280;11452;53.368;14.658;2022-08-01T12:33:20;100794.35;;;27.79;46.07
22572;BME280;11452;53.368;14.658;2022-08-01T12:38:27;100800.61;;;27.83;45.26
22572;BME280;11452;53.368;14.658;2022-08-01T12:43:34;100796.14;;;27.40;45.17
22572;BME280;11452;53.368;14.658;2022-08-01T12:48:39;100789.77;;;27.29;45.81
22572;BME280;11452;53.368;14.658;2022-08-01T12:53:45;100799.13;;;27.34;45.87
22572;BME280;11452;53.368;14.658;2022-08-01T12:58:53;100800.08;;;27.16;46.07
22572;BME280;11452;53.368;14.658;2022-08-01T13:04:03;100801.97;;;27.15;46.72
22572;BME280;11452;53.368;14.658;2022-08-01T13:09:10;100803.28;;;26.94;46.72
22572;BME280;11452;53.368;14.658;2022-08-01T13:14:29;100814.47;;;26.74;46.96
22572;BME280;11452;53.368;14.658;2022-08-01T13:19:47;100811.80;;;26.70;46.98
22572;BME280;11452;53.368;14.658;2022-08-01T13:24:51;100813.77;;;26.61;47.92
22572;BME280;11452;53.368;14.658;2022-08-01T13:30:09;100820.44;;;26.48;47.86
22572;BME280;11452;53.368;14.658;2022-08-01T13:35:07;100820.09;;;26.32;48.03
22572;BME280;11452;53.368;14.658;2022-08-01T13:40:22;100825.48;;;26.17;48.81
22572;BME280;11452;53.368;14.658;2022-08-01T13:45:22;100830.52;;;26.14;49.64
22572;BME280;11452;53.368;14.658;2022-08-01T13:50:29;100828.72;;;26.21;50.32
22572;BME280;11452;53.368;14.658;2022-08-01T13:55:36;100832.95;;;26.28;50.31
22572;BME280;11452;53.368;14.658;2022-08-01T14:00:42;100838.82;;;26.02;50.16
22572;BME280;11452;53.368;14.658;2022-08-01T14:05:48;100839.67;;;26.02;50.92
22572;BME280;11452;53.368;14.658;2022-08-01T14:10:56;100848.36;;;26.10;50.80
22572;BME280;11452;53.368;14.658;2022-08-01T14:16:03;100846.89;;;25.99;51.55
22572;BME280;11452;53.368;14.658;2022-08-01T14:21:12;100849.17;;;25.96;51.62
22572;BME280;11452;53.368;14.658;2022-08-01T14:26:18;100857.79;;;26.49;50.06
22572;BME280;11452;53.368;14.658;2022-08-01T14:31:24;100866.69;;;25.86;51.86
22572;BME280;11452;53.368;14.658;2022-08-01T14:36:32;100879.05;;;25.47;53.01
22572;BME280;11452;53.368;14.658;2022-08-01T14:41:39;100886.91;;;25.19;53.99
22572;BME280;11452;53.368;14.658;2022-08-01T14:46:45;100894.16;;;25.00;54.69
22572;BME280;11452;53.368;14.658;2022-08-01T14:51:54;100888.72;;;24.80;55.55
22572;BME280;11452;53.368;14.658;2022-08-01T14:56:59;100917.47;;;24.64;55.92
22572;BME280;11452;53.368;14.658;2022-08-01T15:02:05;100910.63;;;24.31;57.30
22572;BME280;11452;53.368;14.658;2022-08-01T15:07:13;100926.99;;;24.15;57.99
22572;BME280;11452;53.368;14.658;2022-08-01T15:12:18;100928.02;;;24.95;57.62
22572;BME280;11452;53.368;14.658;2022-08-01T15:17:26;100946.27;;;25.07;58.05
22572;BME280;11452;53.368;14.658;2022-08-01T15:22:34;100941.39;;;24.25;60.24
22572;BME280;11452;53.368;14.658;2022-08-01T15:27:39;100948.69;;;24.21;61.16
22572;BME280;11452;53.368;14.658;2022-08-01T15:32:45;100950.52;;;23.96;61.64
22572;BME280;11452;53.368;14.658;2022-08-01T15:37:52;100952.22;;;23.85;62.24
22572;BME280;11452;53.368;14.658;2022-08-01T15:42:58;100955.63;;;23.74;62.37
22572;BME280;11452;53.368;14.658;2022-08-01T15:48:03;100952.81;;;23.58;63.15
22572;BME280;11452;53.368;14.658;2022-08-01T15:53:09;100961.30;;;23.51;63.23
22572;BME280;11452;53.368;14.658;2022-08-01T15:58:14;100957.51;;;23.44;64.02
22572;BME280;11452;53.368;14.658;2022-08-01T16:03:20;100959.24;;;23.49;64.16
22572;BME280;11452;53.368;14.658;2022-08-01T16:08:26;100954.69;;;23.58;65.22
22572;BME280;11452;53.368;14.658;2022-08-01T16:13:31;100957.27;;;23.63;65.22
22572;BME280;11452;53.368;14.658;2022-08-01T16:18:37;100964.30;;;23.70;64.93
22572;BME280;11452;53.368;14.658;2022-08-01T16:23:43;100954.59;;;23.79;65.46
22572;BME280;11452;53.368;14.658;2022-08-01T16:28:49;100965.48;;;23.67;64.82
22572;BME280;11452;53.368;14.658;2022-08-01T16:33:56;100966.36;;;23.72;65.09
22572;BME280;11452;53.368;14.658;2022-08-01T16:39:03;100975.38;;;23.68;64.70
22572;BME280;11452;53.368;14.658;2022-08-01T16:44:10;100971.94;;;23.62;65.15
22572;BME280;11452;53.368;14.658;2022-08-01T16:49:16;100978.08;;;23.56;64.78
22572;BME280;11452;53.368;14.658;2022-08-01T16:54:23;100984.80;;;23.44;65.28
22572;BME280;11452;53.368;14.658;2022-08-01T16:59:29;100990.95;;;23.46;65.37
22572;BME280;11452;53.368;14.658;2022-08-01T17:04:36;100994.08;;;23.25;64.69
22572;BME280;11452;53.368;14.658;2022-08-01T17:09:42;100991.83;;;23.21;64.98
22572;BME280;11452;53.368;14.658;2022-08-01T17:14:47;100999.47;;;23.13;64.24
22572;BME280;11452;53.368;14.658;2022-08-01T17:19:54;101005.09;;;23.11;64.70
22572;BME280;11452;53.368;14.658;2022-08-01T17:24:59;101012.50;;;23.01;64.24
22572;BME280;11452;53.368;14.658;2022-08-01T17:30:06;101008.25;;;22.99;64.87
22572;BME280;11452;53.368;14.658;2022-08-01T17:35:11;101011.45;;;22.94;64.50
22572;BME280;11452;53.368;14.658;2022-08-01T17:40:17;101018.03;;;22.88;64.60
22572;BME280;11452;53.368;14.658;2022-08-01T17:45:25;101021.07;;;22.67;63.92
22572;BME280;11452;53.368;14.658;2022-08-01T17:50:32;101034.58;;;22.72;64.35
22572;BME280;11452;53.368;14.658;2022-08-01T17:55:38;101034.89;;;22.69;64.72
22572;BME280;11452;53.368;14.658;2022-08-01T18:00:46;101044.55;;;22.77;64.21
22572;BME280;11452;53.368;14.658;2022-08-01T18:05:52;101040.70;;;22.70;64.84
22572;BME280;11452;53.368;14.658;2022-08-01T18:10:59;101047.86;;;22.71;64.35
22572;BME280;11452;53.368;14.658;2022-08-01T18:16:06;101043.19;;;22.64;64.81
22572;BME280;11452;53.368;14.658;2022-08-01T18:21:14;101039.90;;;22.56;64.68
22572;BME280;11452;53.368;14.658;2022-08-01T18:26:21;101045.45;;;22.51;65.19
22572;BME280;11452;53.368;14.658;2022-08-01T18:31:26;101049.63;;;22.59;65.40
22572;BME280;11452;53.368;14.658;2022-08-01T18:36:32;101058.38;;;22.49;65.69
22572;BME280;11452;53.368;14.658;2022-08-01T18:41:39;101055.74;;;22.57;65.67
22572;BME280;11452;53.368;14.658;2022-08-01T18:46:45;101059.73;;;22.49;66.01
22572;BME280;11452;53.368;14.658;2022-08-01T18:51:50;101061.39;;;22.59;66.48
22572;BME280;11452;53.368;14.658;2022-08-01T18:56:57;101057.85;;;22.63;66.40
22572;BME280;11452;53.368;14.658;2022-08-01T19:02:03;101066.48;;;22.58;66.27
22572;BME280;11452;53.368;14.658;2022-08-01T19:07:09;101073.87;;;22.48;66.34
22572;BME280;11452;53.368;14.658;2022-08-01T19:12:15;101068.70;;;22.41;66.34
22572;BME280;11452;53.368;14.658;2022-08-01T19:17:20;101084.19;;;22.40;66.30
22572;BME280;11452;53.368;14.658;2022-08-01T19:22:27;101097.00;;;22.30;66.38
22572;BME280;11452;53.368;14.658;2022-08-01T19:27:34;101103.61;;;22.28;66.55
22572;BME280;11452;53.368;14.658;2022-08-01T19:32:45;101109.19;;;22.22;66.62
22572;BME280;11452;53.368;14.658;2022-08-01T19:37:52;101111.35;;;22.19;66.62
22572;BME280;11452;53.368;14.658;2022-08-01T19:42:59;101117.80;;;22.18;66.45
22572;BME280;11452;53.368;14.658;2022-08-01T19:48:06;101119.56;;;22.09;66.61
22572;BME280;11452;53.368;14.658;2022-08-01T19:53:12;101122.25;;;22.05;66.89
22572;BME280;11452;53.368;14.658;2022-08-01T19:58:21;101123.83;;;22.07;66.64
22572;BME280;11452;53.368;14.658;2022-08-01T20:03:28;101132.23;;;22.00;66.36
22572;BME280;11452;53.368;14.658;2022-08-01T20:08:36;101128.41;;;21.84;66.28
22572;BME280;11452;53.368;14.658;2022-08-01T20:13:43;101131.36;;;21.76;66.59
22572;BME280;11452;53.368;14.658;2022-08-01T20:18:49;101140.38;;;21.77;66.74
22572;BME280;11452;53.368;14.658;2022-08-01T20:23:58;101137.06;;;21.69;66.64
22572;BME280;11452;53.368;14.658;2022-08-01T20:29:06;101147.88;;;21.65;66.68
22572;BME280;11452;53.368;14.658;2022-08-01T20:34:25;101150.03;;;21.62;66.91
22572;BME280;11452;53.368;14.658;2022-08-01T20:39:32;101147.67;;;21.53;66.91
22572;BME280;11452;53.368;14.658;2022-08-01T20:44:40;101151.72;;;21.49;66.92
22572;BME280;11452;53.368;14.658;2022-08-01T20:49:46;101150.58;;;21.42;66.91
22572;BME280;11452;53.368;14.658;2022-08-01T20:54:54;101154.88;;;21.35;66.94
22572;BME280;11452;53.368;14.658;2022-08-01T21:00:04;101150.32;;;21.26;66.84
22572;BME280;11452;53.368;14.658;2022-08-01T21:05:12;101151.14;;;21.17;67.04
22572;BME280;11452;53.368;14.658;2022-08-01T21:10:20;101158.61;;;20.95;66.75
22572;BME280;11452;53.368;14.658;2022-08-01T21:15:39;101164.03;;;20.86;66.67
22572;BME280;11452;53.368;14.658;2022-08-01T21:20:54;101179.63;;;20.74;66.54
22572;BME280;11452;53.368;14.658;2022-08-01T21:25:59;101182.17;;;20.66;66.54
22572;BME280;11452;53.368;14.658;2022-08-01T21:31:05;101184.38;;;20.57;66.52
22572;BME280;11452;53.368;14.658;2022-08-01T21:36:16;101195.20;;;20.47;66.44
22572;BME280;11452;53.368;14.658;2022-08-01T21:41:24;101199.77;;;20.37;66.43
22572;BME280;11452;53.368;14.658;2022-08-01T21:46:33;101198.83;;;20.27;66.38
22572;BME280;11452;53.368;14.658;2022-08-01T21:51:44;101204.50;;;20.14;66.23
22572;BME280;11452;53.368;14.658;2022-08-01T22:02:21;101215.63;;;19.96;66.02
22572;BME280;11452;53.368;14.658;2022-08-01T22:07:25;101211.66;;;19.85;66.04
22572;BME280;11452;53.368;14.658;2022-08-01T22:12:33;101213.07;;;19.74;66.18
22572;BME280;11452;53.368;14.658;2022-08-01T22:17:40;101209.81;;;19.64;66.33
22572;BME280;11452;53.368;14.658;2022-08-01T22:22:48;101208.98;;;19.58;66.22
22572;BME280;11452;53.368;14.658;2022-08-01T22:27:56;101216.17;;;19.48;66.15
22572;BME280;11452;53.368;14.658;2022-08-01T22:33:03;101213.98;;;19.42;65.82
22572;BME280;11452;53.368;14.658;2022-08-01T22:38:11;101217.51;;;19.27;65.28
22572;BME280;11452;53.368;14.658;2022-08-01T22:44:07;101216.81;;;19.14;65.21
22572;BME280;11452;53.368;14.658;2022-08-01T22:48:30;101217.06;;;19.11;64.95
22572;BME280;11452;53.368;14.658;2022-08-01T22:53:41;101216.00;;;19.02;64.69
22572;BME280;11452;53.368;14.658;2022-08-01T22:58:48;101223.52;;;18.99;64.25
22572;BME280;11452;53.368;14.658;2022-08-01T23:03:56;101232.06;;;18.89;63.84
22572;BME280;11452;53.368;14.658;2022-08-01T23:09:02;101229.24;;;18.85;63.62
22572;BME280;11452;53.368;14.658;2022-08-01T23:14:08;101232.57;;;18.77;63.06
22572;BME280;11452;53.368;14.658;2022-08-01T23:19:14;101238.52;;;18.71;62.82
22572;BME280;11452;53.368;14.658;2022-08-01T23:24:21;101228.55;;;18.66;62.51
22572;BME280;11452;53.368;14.658;2022-08-01T23:29:27;101223.37;;;18.63;62.11
22572;BME280;11452;53.368;14.658;2022-08-01T23:34:33;101224.98;;;18.60;62.06
22572;BME280;11452;53.368;14.658;2022-08-01T23:39:39;101228.17;;;18.54;61.98
22572;BME280;11452;53.368;14.658;2022-08-01T23:44:45;101216.85;;;18.49;61.71
22572;BME280;11452;53.368;14.658;2022-08-01T23:49:51;101209.59;;;18.44;61.59
22572;BME280;11452;53.368;14.658;2022-08-01T23:54:57;101218.11;;;18.33;61.34
